Time;durP1;ratioP1;P1;durP2;ratioP2;P2;SDS_P1;SDS_P2;PMS_P1;PMS_P2;Temp;Humidity;BMP_temperature;BMP_pressure;BME280_temperature;BME280_humidity;BME280_pressure;Samples;Min_cycle;Max_cycle;Signal;HPM_P1;HPM_P2
2021/01/08 00:01:10;;;;;;;40.57;23.57;;;1.70;92.00;;;;;;4953612;28;20205;-81
2021/01/08 00:03:40;;;;;;;41.30;24.57;;;1.80;92.00;;;;;;4971598;28;20205;-80
2021/01/08 00:06:08;;;;;;;36.70;22.70;;;1.70;91.90;;;;;;4957941;28;20232;-80
2021/01/08 00:08:36;;;;;;;36.67;22.90;;;1.80;92.00;;;;;;4950754;28;20229;-80
2021/01/08 00:11:06;;;;;;;38.87;22.03;;;1.90;92.00;;;;;;4945594;28;20193;-82
2021/01/08 00:13:33;;;;;;;38.80;22.80;;;1.90;91.90;;;;;;4952116;28;20743;-79
2021/01/08 00:16:02;;;;;;;43.03;23.67;;;1.80;91.80;;;;;;4928620;28;20552;-83
2021/01/08 00:18:30;;;;;;;44.37;24.33;;;1.80;91.80;;;;;;4955298;28;20901;-80
2021/01/08 00:20:58;;;;;;;38.27;21.50;;;1.80;91.90;;;;;;4945607;28;20248;-80
2021/01/08 00:23:26;;;;;;;38.70;23.50;;;1.80;91.90;;;;;;4972075;28;20203;-82
2021/01/08 00:25:53;;;;;;;39.93;23.17;;;1.80;91.90;;;;;;4962316;28;20228;-81
2021/01/08 00:28:20;;;;;;;46.27;24.73;;;1.90;91.90;;;;;;4945974;28;20213;-80
2021/01/08 00:30:48;;;;;;;39.83;24.40;;;1.90;91.90;;;;;;4944123;28;20201;-82
2021/01/08 00:33:16;;;;;;;41.47;24.00;;;1.80;91.90;;;;;;4959295;28;20204;-81
2021/01/08 00:35:44;;;;;;;42.70;24.57;;;1.90;92.00;;;;;;4961303;28;20209;-79
2021/01/08 00:38:12;;;;;;;42.13;23.20;;;1.90;92.00;;;;;;4956779;28;20241;-81
2021/01/08 00:40:39;;;;;;;38.03;23.53;;;1.90;92.00;;;;;;4980072;28;20185;-81
2021/01/08 00:43:07;;;;;;;40.60;23.73;;;1.90;92.00;;;;;;4979572;28;20412;-80
2021/01/08 00:45:34;;;;;;;40.03;23.23;;;1.70;92.00;;;;;;4969792;28;20225;-81
2021/01/08 00:48:02;;;;;;;41.70;23.53;;;1.90;92.00;;;;;;4982056;28;20509;-79
2021/01/08 00:50:30;;;;;;;39.07;23.60;;;1.90;92.00;;;;;;4960935;28;20204;-81
2021/01/08 00:52:58;;;;;;;39.77;23.97;;;1.90;92.00;;;;;;4954402;28;20522;-82
2021/01/08 00:55:25;;;;;;;39.17;24.03;;;1.90;92.00;;;;;;4972566;28;20197;-82
2021/01/08 00:57:53;;;;;;;38.53;23.27;;;2.00;92.00;;;;;;4971946;28;20212;-80
2021/01/08 01:00:21;;;;;;;42.97;24.50;;;1.90;92.00;;;;;;4979746;28;20202;-80
2021/01/08 01:02:48;;;;;;;42.50;24.50;;;2.00;92.00;;;;;;4952761;28;20440;-81
2021/01/08 01:05:16;;;;;;;43.53;23.47;;;2.00;92.00;;;;;;4953277;28;20299;-81
2021/01/08 01:07:49;;;;;;;43.10;24.57;;;2.00;91.90;;;;;;4960729;28;20200;-81
2021/01/08 01:10:18;;;;;;;42.43;25.17;;;1.90;92.00;;;;;;4950009;28;20364;-79
2021/01/08 01:12:45;;;;;;;44.57;24.30;;;1.90;92.00;;;;;;4967623;28;20184;-81
2021/01/08 01:15:17;;;;;;;45.43;25.37;;;2.00;92.00;;;;;;4962598;28;20203;-81
2021/01/08 01:17:45;;;;;;;42.03;24.57;;;1.90;92.00;;;;;;4949195;28;20452;-82
2021/01/08 01:20:13;;;;;;;39.53;24.57;;;1.90;92.00;;;;;;4953238;28;20284;-79
2021/01/08 01:22:41;;;;;;;42.33;25.10;;;1.90;91.90;;;;;;4957547;28;20732;-81
2021/01/08 01:25:11;;;;;;;43.23;24.40;;;1.90;91.90;;;;;;4937475;28;20252;-81
2021/01/08 01:27:38;;;;;;;41.37;23.73;;;1.90;92.10;;;;;;4949558;28;20232;-80
2021/01/08 01:30:07;;;;;;;40.30;24.57;;;1.90;92.10;;;;;;4945392;28;20316;-80
2021/01/08 01:32:36;;;;;;;41.43;25.17;;;1.90;92.10;;;;;;4940542;28;20209;-79
2021/01/08 01:35:04;;;;;;;43.43;24.77;;;1.90;92.10;;;;;;4953978;28;20213;-80
2021/01/08 01:37:31;;;;;;;43.40;25.23;;;1.90;92.10;;;;;;4942568;28;20219;-83
2021/01/08 01:39:59;;;;;;;41.77;23.53;;;1.90;92.10;;;;;;4953879;28;20299;-82
2021/01/08 01:42:27;;;;;;;37.27;22.17;;;1.90;92.20;;;;;;4952229;28;20208;-79
2021/01/08 01:44:55;;;;;;;40.73;23.83;;;1.80;92.20;;;;;;4954462;28;20209;-80
2021/01/08 01:47:23;;;;;;;43.00;23.53;;;1.90;92.30;;;;;;4953199;28;20293;-81
2021/01/08 01:49:50;;;;;;;42.23;23.40;;;1.90;92.30;;;;;;4952034;28;20672;-82
2021/01/08 01:52:18;;;;;;;43.73;24.23;;;1.90;92.30;;;;;;4967793;28;20211;-81
2021/01/08 01:54:45;;;;;;;40.37;23.27;;;1.90;92.30;;;;;;4954706;28;20267;-80
2021/01/08 01:57:13;;;;;;;40.37;25.03;;;1.90;92.40;;;;;;4953613;28;20688;-80
2021/01/08 01:59:41;;;;;;;40.87;25.10;;;1.90;92.40;;;;;;4950067;28;20616;-80
2021/01/08 02:02:18;;;;;;;41.60;24.60;;;1.80;92.30;;;;;;4956519;28;20583;-80
2021/01/08 02:04:46;;;;;;;38.53;22.73;;;1.90;92.20;;;;;;4955699;28;20255;-81
2021/01/08 02:07:15;;;;;;;43.77;24.07;;;1.90;92.20;;;;;;4959344;28;20227;-81
2021/01/08 02:09:42;;;;;;;45.00;24.90;;;1.90;92.10;;;;;;4981730;28;20252;-79
2021/01/08 02:12:11;;;;;;;39.07;23.23;;;1.90;92.10;;;;;;4972988;28;20200;-81
2021/01/08 02:14:44;;;;;;;42.93;24.60;;;1.90;92.10;;;;;;4964352;28;20223;-81
2021/01/08 02:17:15;;;;;;;39.63;23.67;;;1.90;92.00;;;;;;4958526;28;20198;-82
2021/01/08 02:19:47;;;;;;;43.60;23.40;;;1.90;92.10;;;;;;4966611;28;20240;-79
2021/01/08 02:22:19;;;;;;;37.30;23.10;;;1.90;92.10;;;;;;4958709;28;20626;-81
2021/01/08 02:25:02;;;;;;;41.27;24.40;;;1.90;92.00;;;;;;4973979;28;20198;-80
2021/01/08 02:27:32;;;;;;;42.53;24.70;;;1.90;92.00;;;;;;4956892;28;20203;-82
2021/01/08 02:30:00;;;;;;;40.70;24.20;;;1.80;92.00;;;;;;4960359;28;20208;-80
2021/01/08 02:32:28;;;;;;;42.87;22.83;;;1.90;92.10;;;;;;4951463;28;20570;-81
2021/01/08 02:34:56;;;;;;;39.07;23.27;;;1.80;91.90;;;;;;4954728;28;20655;-81
2021/01/08 02:37:25;;;;;;;37.43;23.00;;;1.90;92.10;;;;;;4954506;28;20422;-82
2021/01/08 02:39:53;;;;;;;44.07;24.20;;;1.90;92.00;;;;;;4952029;28;20788;-80
2021/01/08 02:42:22;;;;;;;39.50;23.10;;;1.90;92.10;;;;;;4954695;28;21118;-82
2021/01/08 02:44:50;;;;;;;37.33;22.50;;;1.90;92.10;;;;;;4955548;28;20212;-81
2021/01/08 02:47:20;;;;;;;40.10;22.20;;;1.90;92.00;;;;;;4958108;28;20320;-80
2021/01/08 02:49:48;;;;;;;41.90;24.20;;;1.90;92.10;;;;;;4955511;28;20599;-78
2021/01/08 02:52:16;;;;;;;38.43;23.07;;;1.90;92.00;;;;;;4969975;28;20663;-82
2021/01/08 02:54:44;;;;;;;41.97;23.83;;;1.90;92.00;;;;;;4960615;28;20201;-81
2021/01/08 02:57:13;;;;;;;42.97;23.43;;;1.90;92.10;;;;;;4958410;28;20194;-80
2021/01/08 02:59:42;;;;;;;40.63;22.83;;;1.90;92.10;;;;;;4970555;28;20205;-80
2021/01/08 03:02:11;;;;;;;39.43;22.90;;;1.90;92.10;;;;;;4959741;28;20205;-81
2021/01/08 03:04:39;;;;;;;37.57;21.43;;;1.90;92.20;;;;;;4951849;28;20216;-80
2021/01/08 03:07:07;;;;;;;39.43;22.83;;;1.90;92.20;;;;;;4956398;28;20232;-81
2021/01/08 03:09:35;;;;;;;38.77;22.63;;;1.90;92.10;;;;;;4956169;28;20200;-81
2021/01/08 03:12:03;;;;;;;37.33;22.47;;;1.90;92.00;;;;;;4958638;28;20217;-80
2021/01/08 03:14:31;;;;;;;36.37;22.37;;;1.90;91.90;;;;;;4958589;28;20224;-80
2021/01/08 03:16:59;;;;;;;39.93;23.93;;;1.90;92.00;;;;;;4960244;28;20203;-81
2021/01/08 03:19:26;;;;;;;40.47;23.10;;;1.90;92.00;;;;;;4956250;28;20251;-78
2021/01/08 03:21:54;;;;;;;37.23;21.53;;;1.90;92.00;;;;;;4954369;28;20209;-81
2021/01/08 03:24:21;;;;;;;37.40;21.00;;;1.80;91.90;;;;;;4967238;28;20658;-81
2021/01/08 03:26:49;;;;;;;33.50;20.70;;;1.90;91.80;;;;;;4942141;28;20370;-81
2021/01/08 03:29:16;;;;;;;41.37;22.37;;;1.90;91.90;;;;;;4951555;28;20206;-80
2021/01/08 03:31:44;;;;;;;37.70;22.57;;;1.90;91.90;;;;;;4952931;28;20206;-81
2021/01/08 03:34:12;;;;;;;36.13;21.40;;;1.90;91.80;;;;;;4953183;28;20756;-80
2021/01/08 03:36:40;;;;;;;38.17;21.97;;;2.00;91.80;;;;;;4973479;28;20200;-79
2021/01/08 03:39:07;;;;;;;37.30;20.90;;;2.00;91.80;;;;;;4967996;28;20405;-81
2021/01/08 03:41:34;;;;;;;36.47;21.67;;;1.90;91.80;;;;;;4956951;28;20250;-81
2021/01/08 03:44:02;;;;;;;37.97;21.63;;;2.00;91.70;;;;;;4956133;28;20200;-81
2021/01/08 03:46:35;;;;;;;35.40;21.00;;;1.90;91.70;;;;;;4940995;28;20295;-80
2021/01/08 03:49:05;;;;;;;37.50;20.87;;;1.90;91.80;;;;;;4958514;28;20236;-80
2021/01/08 03:51:33;;;;;;;32.67;20.20;;;1.90;91.70;;;;;;4949543;28;20321;-81
2021/01/08 03:54:01;;;;;;;35.27;18.60;;;1.90;91.70;;;;;;4937530;28;20240;-81
2021/01/08 03:56:28;;;;;;;36.20;21.53;;;1.90;91.60;;;;;;4957659;28;20202;-82
2021/01/08 03:58:56;;;;;;;32.80;19.73;;;1.90;91.50;;;;;;4948628;28;20211;-80
2021/01/08 04:01:24;;;;;;;32.57;20.23;;;1.90;91.60;;;;;;4953500;28;20209;-81
2021/01/08 04:03:51;;;;;;;35.07;20.53;;;1.90;91.60;;;;;;4955578;28;20788;-80
2021/01/08 04:06:19;;;;;;;33.40;20.03;;;1.90;91.60;;;;;;4947285;28;20241;-80
2021/01/08 04:08:47;;;;;;;32.53;19.83;;;1.80;91.60;;;;;;4955794;28;20196;-82
2021/01/08 04:11:15;;;;;;;33.93;20.97;;;1.80;91.60;;;;;;4948076;28;20703;-81
2021/01/08 04:13:42;;;;;;;35.83;21.17;;;1.90;91.80;;;;;;4942297;28;20285;-81
2021/01/08 04:16:09;;;;;;;35.30;20.90;;;1.80;91.80;;;;;;4977272;28;20228;-81
2021/01/08 04:18:37;;;;;;;32.20;19.43;;;1.80;91.70;;;;;;4947343;28;20238;-80
2021/01/08 04:21:05;;;;;;;33.80;19.50;;;1.90;91.70;;;;;;4954568;28;20498;-81
2021/01/08 04:23:32;;;;;;;33.90;19.60;;;1.90;91.60;;;;;;4966459;28;20912;-82
2021/01/08 04:26:00;;;;;;;35.00;19.83;;;1.80;91.70;;;;;;4951061;28;20781;-79
2021/01/08 04:28:28;;;;;;;34.17;21.10;;;1.80;91.60;;;;;;4940953;28;20203;-79
2021/01/08 04:30:55;;;;;;;39.00;20.50;;;1.80;91.70;;;;;;4949204;28;20197;-80
2021/01/08 04:33:23;;;;;;;31.43;18.30;;;1.80;91.70;;;;;;4942498;28;20276;-80
2021/01/08 04:35:53;;;;;;;33.53;20.70;;;1.80;91.40;;;;;;4953920;28;20197;-82
2021/01/08 04:38:20;;;;;;;36.07;20.67;;;1.80;91.40;;;;;;4954582;28;20205;-80
2021/01/08 04:40:49;;;;;;;32.33;19.60;;;1.80;91.40;;;;;;4942385;28;20212;-81
2021/01/08 04:43:19;;;;;;;33.97;20.17;;;1.80;91.40;;;;;;4945101;28;20630;-79
2021/01/08 04:45:46;;;;;;;34.00;20.00;;;1.80;91.50;;;;;;4953942;28;20675;-79
2021/01/08 04:48:15;;;;;;;34.33;20.67;;;1.80;91.50;;;;;;4968142;28;20194;-81
2021/01/08 04:50:43;;;;;;;36.90;21.17;;;1.80;91.50;;;;;;4950234;28;20203;-81
2021/01/08 04:53:11;;;;;;;34.93;20.00;;;1.80;91.40;;;;;;4960244;28;20677;-81
2021/01/08 04:55:39;;;;;;;34.10;18.73;;;1.80;91.40;;;;;;4928764;28;20237;-81
2021/01/08 04:58:10;;;;;;;36.70;20.63;;;1.80;91.40;;;;;;4952851;28;20562;-81
2021/01/08 05:00:38;;;;;;;31.90;19.67;;;1.80;91.40;;;;;;4948554;28;20288;-81
2021/01/08 05:03:06;;;;;;;34.00;19.77;;;1.80;91.40;;;;;;4971064;28;20193;-81
2021/01/08 05:05:34;;;;;;;32.13;20.80;;;1.80;91.40;;;;;;4973321;28;20189;-80
2021/01/08 05:08:01;;;;;;;32.03;19.70;;;1.90;91.40;;;;;;4957592;28;20308;-80
2021/01/08 05:10:29;;;;;;;36.23;20.60;;;1.80;91.40;;;;;;4953600;28;20208;-81
2021/01/08 05:12:57;;;;;;;29.77;18.53;;;1.80;91.40;;;;;;4952399;28;20292;-81
2021/01/08 05:15:25;;;;;;;32.33;19.43;;;2.00;91.40;;;;;;4947677;28;20277;-80
2021/01/08 05:17:54;;;;;;;36.17;20.33;;;1.80;91.40;;;;;;4954064;28;20599;-80
2021/01/08 05:20:23;;;;;;;33.73;20.47;;;1.80;91.50;;;;;;4949056;28;20237;-81
2021/01/08 05:22:51;;;;;;;33.03;19.87;;;1.80;91.50;;;;;;4935498;28;20205;-81
2021/01/08 05:25:19;;;;;;;32.70;18.77;;;1.80;91.50;;;;;;4971673;28;20209;-80
2021/01/08 05:27:47;;;;;;;35.03;18.90;;;1.80;91.50;;;;;;4949297;28;20714;-81
2021/01/08 05:30:16;;;;;;;34.30;19.73;;;1.80;91.60;;;;;;4963718;28;20626;-80
2021/01/08 05:32:44;;;;;;;31.73;19.20;;;1.80;91.50;;;;;;4938011;28;20205;-81
2021/01/08 05:35:16;;;;;;;33.87;20.23;;;1.80;91.40;;;;;;4948197;28;20651;-81
2021/01/08 05:37:45;;;;;;;31.40;18.87;;;1.80;91.50;;;;;;4954918;28;20577;-81
2021/01/08 05:40:14;;;;;;;32.27;19.13;;;1.80;91.40;;;;;;4945088;28;20305;-79
2021/01/08 05:42:58;;;;;;;31.67;20.37;;;1.70;91.50;;;;;;4942029;28;20315;-81
2021/01/08 05:45:26;;;;;;;35.53;20.03;;;1.70;91.60;;;;;;4949588;28;20204;-82
2021/01/08 05:47:56;;;;;;;32.77;19.20;;;1.80;91.60;;;;;;4938539;28;20209;-81
2021/01/08 05:50:26;;;;;;;33.17;20.23;;;1.80;91.50;;;;;;4959356;28;20216;-80
2021/01/08 05:52:58;;;;;;;32.67;19.40;;;1.70;91.30;;;;;;4948624;28;20205;-81
2021/01/08 05:55:27;;;;;;;30.90;18.63;;;1.70;91.40;;;;;;4960452;28;20205;-81
2021/01/08 05:57:55;;;;;;;34.50;19.80;;;1.70;91.30;;;;;;4955541;28;20235;-82
2021/01/08 06:00:23;;;;;;;33.47;19.43;;;1.70;91.30;;;;;;4959058;28;20923;-80
2021/01/08 06:02:53;;;;;;;32.60;19.83;;;1.70;91.40;;;;;;4949705;28;20207;-81
2021/01/08 06:05:24;;;;;;;33.30;19.03;;;1.70;91.40;;;;;;4952450;28;20285;-81
2021/01/08 06:07:57;;;;;;;30.93;19.03;;;1.70;91.50;;;;;;4962981;28;20456;-83
2021/01/08 06:10:26;;;;;;;32.53;18.03;;;1.70;91.40;;;;;;4959223;28;20201;-81
2021/01/08 06:12:54;;;;;;;32.00;20.10;;;1.70;91.20;;;;;;4957657;28;20185;-82
2021/01/08 06:15:22;;;;;;;33.43;18.67;;;1.60;91.20;;;;;;4979757;28;20192;-81
2021/01/08 06:17:52;;;;;;;34.67;19.60;;;1.70;91.30;;;;;;4970052;28;20193;-81
2021/01/08 06:20:20;;;;;;;32.87;19.80;;;1.70;91.30;;;;;;4972911;28;20192;-80
2021/01/08 06:22:47;;;;;;;31.13;18.90;;;1.70;91.30;;;;;;4958072;28;20205;-80
2021/01/08 06:25:16;;;;;;;33.20;19.60;;;1.60;91.30;;;;;;4960525;28;20209;-79
2021/01/08 06:27:45;;;;;;;31.23;19.57;;;1.60;91.30;;;;;;4969752;28;20236;-82
2021/01/08 06:30:21;;;;;;;31.73;20.00;;;1.60;91.30;;;;;;4967312;28;20205;-81
2021/01/08 06:32:49;;;;;;;34.60;19.67;;;1.60;91.30;;;;;;4983756;28;20253;-83
2021/01/08 06:35:18;;;;;;;35.87;19.30;;;1.60;91.50;;;;;;4968480;28;20228;-80
2021/01/08 06:37:53;;;;;;;34.23;19.67;;;1.60;91.40;;;;;;4956116;28;20193;-82
2021/01/08 06:40:26;;;;;;;30.80;19.70;;;1.60;91.40;;;;;;4959628;28;20631;-81
2021/01/08 06:43:03;;;;;;;33.33;19.70;;;1.60;91.50;;;;;;4929307;28;20748;-83
2021/01/08 06:45:31;;;;;;;35.97;20.17;;;1.60;91.50;;;;;;4950732;28;20766;-80
2021/01/08 06:48:03;;;;;;;34.23;20.07;;;1.60;91.50;;;;;;4946349;28;20225;-81
2021/01/08 06:50:41;;;;;;;33.87;20.23;;;1.50;91.50;;;;;;4954135;28;20205;-81
2021/01/08 06:53:16;;;;;;;37.37;20.40;;;1.50;91.50;;;;;;4956420;28;20198;-81
2021/01/08 06:55:46;;;;;;;35.77;20.90;;;1.50;91.40;;;;;;4948138;28;20754;-80
2021/01/08 06:58:18;;;;;;;31.17;20.10;;;1.50;91.50;;;;;;4955268;28;20661;-80
2021/01/08 07:00:51;;;;;;;36.13;20.73;;;1.50;91.50;;;;;;4947067;28;20205;-80
2021/01/08 07:03:22;;;;;;;32.63;20.13;;;1.50;91.40;;;;;;4950543;28;20253;-68
2021/01/08 07:05:55;;;;;;;32.10;20.23;;;1.60;91.40;;;;;;4934509;28;20216;-70
2021/01/08 07:08:25;;;;;;;33.30;19.63;;;1.60;91.40;;;;;;4935791;28;20209;-71
2021/01/08 07:10:54;;;;;;;32.37;20.03;;;1.70;91.40;;;;;;4942248;28;20209;-73
2021/01/08 07:13:30;;;;;;;32.07;19.57;;;1.70;91.30;;;;;;4937728;28;20748;-72
2021/01/08 07:15:58;;;;;;;34.30;20.23;;;1.70;91.20;;;;;;4942788;28;20216;-72
2021/01/08 07:18:27;;;;;;;37.77;20.80;;;1.70;91.20;;;;;;4935519;28;21029;-73
2021/01/08 07:20:57;;;;;;;33.80;19.70;;;1.80;91.20;;;;;;4938554;28;20220;-70
2021/01/08 07:23:45;;;;;;;37.67;19.50;;;1.70;91.10;;;;;;4938572;28;20707;-70
2021/01/08 07:26:17;;;;;;;31.43;19.63;;;1.80;91.10;;;;;;4931612;28;20233;-69
2021/01/08 07:28:50;;;;;;;32.43;19.73;;;1.70;91.10;;;;;;4937886;28;20201;-68
2021/01/08 07:31:29;;;;;;;33.50;19.23;;;1.80;91.20;;;;;;4935601;28;20743;-70
2021/01/08 07:33:59;;;;;;;34.23;19.53;;;1.80;91.20;;;;;;4941141;28;20235;-73
2021/01/08 07:36:27;;;;;;;35.53;19.10;;;1.80;91.30;;;;;;4944559;28;20684;-69
2021/01/08 07:38:56;;;;;;;33.70;20.73;;;1.80;91.20;;;;;;4930441;28;20207;-72
2021/01/08 07:41:38;;;;;;;33.50;19.30;;;1.90;91.30;;;;;;4939520;28;20275;-68
2021/01/08 07:44:31;;;;;;;35.20;20.73;;;1.80;91.20;;;;;;4932484;28;20260;-70
2021/01/08 07:47:13;;;;;;;34.57;20.07;;;1.80;91.10;;;;;;4924005;28;20245;-72
2021/01/08 07:49:41;;;;;;;32.07;19.70;;;1.80;91.10;;;;;;4930026;28;20674;-68
2021/01/08 07:52:08;;;;;;;30.53;19.40;;;1.80;91.10;;;;;;4932007;28;20208;-71
2021/01/08 07:54:53;;;;;;;32.37;19.57;;;1.80;91.10;;;;;;4935055;28;20213;-72
2021/01/08 07:57:21;;;;;;;33.47;19.93;;;1.90;91.10;;;;;;4929193;28;20754;-72
2021/01/08 07:59:49;;;;;;;34.50;19.40;;;1.90;91.10;;;;;;4933354;28;20620;-72
2021/01/08 08:02:16;;;;;;;33.77;20.13;;;1.90;91.00;;;;;;4931711;28;20210;-72
2021/01/08 08:04:44;;;;;;;31.33;18.70;;;1.90;90.90;;;;;;4932696;28;20213;-70
2021/01/08 08:07:13;;;;;;;34.63;20.77;;;1.90;90.80;;;;;;4937423;28;20220;-70
2021/01/08 08:09:41;;;;;;;32.33;19.43;;;1.90;90.90;;;;;;4934202;28;20801;-68
2021/01/08 08:12:10;;;;;;;30.17;18.40;;;1.90;90.80;;;;;;4935776;28;20240;-73
2021/01/08 08:14:39;;;;;;;32.77;20.03;;;1.90;90.80;;;;;;4933755;28;20217;-72
2021/01/08 08:17:06;;;;;;;30.20;18.67;;;2.00;90.90;;;;;;4937292;28;21042;-71
2021/01/08 08:19:34;;;;;;;34.30;19.43;;;2.00;90.90;;;;;;4941185;28;20224;-72
2021/01/08 08:22:02;;;;;;;32.03;19.93;;;2.00;90.90;;;;;;4937141;28;20321;-72
2021/01/08 08:24:29;;;;;;;32.83;21.03;;;2.00;90.80;;;;;;4932623;28;20562;-72
2021/01/08 08:26:57;;;;;;;31.33;19.63;;;2.00;90.80;;;;;;4933279;28;20221;-71
2021/01/08 08:29:26;;;;;;;32.33;19.80;;;2.10;90.90;;;;;;4936445;28;20944;-69
2021/01/08 08:31:54;;;;;;;32.67;20.10;;;2.10;90.90;;;;;;4934514;28;21093;-70
2021/01/08 08:34:27;;;;;;;35.50;19.40;;;2.10;90.60;;;;;;4933984;28;20277;-71
2021/01/08 08:37:04;;;;;;;34.73;20.43;;;2.20;90.50;;;;;;4938320;28;20212;-69
2021/01/08 08:39:32;;;;;;;31.60;19.30;;;2.20;90.50;;;;;;4934527;28;20632;-74
2021/01/08 08:42:00;;;;;;;34.40;19.37;;;2.20;90.40;;;;;;4931903;28;20828;-72
2021/01/08 08:44:27;;;;;;;31.60;19.33;;;2.30;90.40;;;;;;4924964;28;20210;-69
2021/01/08 08:46:57;;;;;;;29.90;18.53;;;2.30;90.10;;;;;;4928270;28;20283;-70
2021/01/08 08:49:28;;;;;;;33.07;20.60;;;2.30;90.20;;;;;;4932376;28;20221;-69
2021/01/08 08:51:56;;;;;;;35.67;20.30;;;2.30;90.30;;;;;;4934564;28;20614;-71
2021/01/08 08:54:25;;;;;;;32.83;20.40;;;2.30;90.20;;;;;;4929001;28;20593;-71
2021/01/08 08:56:54;;;;;;;31.67;19.70;;;2.40;90.10;;;;;;4932640;28;20206;-73
2021/01/08 08:59:37;;;;;;;30.43;19.37;;;2.40;90.00;;;;;;4928162;28;21049;-72
2021/01/08 09:02:06;;;;;;;27.73;18.87;;;2.40;89.90;;;;;;4930492;28;20522;-70
2021/01/08 09:04:34;;;;;;;30.70;18.83;;;2.50;89.40;;;;;;4934048;28;20311;-69
2021/01/08 09:07:07;;;;;;;33.67;20.47;;;2.50;89.10;;;;;;4929784;28;20282;-74
2021/01/08 09:09:41;;;;;;;29.87;18.73;;;2.40;89.50;;;;;;4929828;28;20535;-69
2021/01/08 09:12:35;;;;;;;30.87;19.87;;;2.40;89.50;;;;;;4927168;28;20882;-74
2021/01/08 09:15:06;;;;;;;31.53;20.20;;;2.40;89.80;;;;;;4931333;28;20202;-68
2021/01/08 09:17:40;;;;;;;28.60;19.07;;;2.50;90.10;;;;;;4927399;28;20886;-70
2021/01/08 09:20:14;;;;;;;31.50;19.57;;;2.50;89.90;;;;;;4932926;28;20620;-74
2021/01/08 09:22:42;;;;;;;31.93;18.77;;;2.50;89.70;;;;;;4932577;28;20431;-69
2021/01/08 09:25:11;;;;;;;29.70;19.03;;;2.60;89.70;;;;;;4940990;28;20210;-73
2021/01/08 09:27:42;;;;;;;29.27;18.60;;;2.50;89.60;;;;;;4936238;28;20230;-71
2021/01/08 09:30:11;;;;;;;31.00;19.27;;;2.60;89.80;;;;;;4936398;28;20334;-71
2021/01/08 09:32:39;;;;;;;30.27;19.23;;;2.70;89.10;;;;;;4931557;28;20217;-70
2021/01/08 09:35:09;;;;;;;28.40;18.77;;;2.70;89.50;;;;;;4930791;28;20207;-69
2021/01/08 09:37:43;;;;;;;33.40;19.67;;;2.60;88.80;;;;;;4931917;28;20207;-70
2021/01/08 09:40:13;;;;;;;29.63;18.53;;;2.70;89.10;;;;;;4936213;28;20480;-71
2021/01/08 09:42:41;;;;;;;29.97;20.07;;;2.70;89.30;;;;;;4900903;28;20200;-67
2021/01/08 09:45:20;;;;;;;31.03;18.57;;;2.70;88.90;;;;;;4924649;28;20214;-69
2021/01/08 09:47:51;;;;;;;28.10;19.53;;;2.60;88.70;;;;;;4934470;28;20221;-72
2021/01/08 09:50:23;;;;;;;29.20;18.97;;;2.70;88.90;;;;;;4934553;28;20213;-69
2021/01/08 09:52:51;;;;;;;30.77;19.27;;;2.80;89.00;;;;;;4941350;28;20217;-72
2021/01/08 09:55:27;;;;;;;29.40;18.70;;;2.90;89.10;;;;;;4937446;28;20628;-71
2021/01/08 09:57:58;;;;;;;31.50;21.07;;;2.90;88.60;;;;;;4935637;28;20202;-81
2021/01/08 10:00:31;;;;;;;33.30;19.53;;;2.90;88.00;;;;;;4937196;28;20203;-81
2021/01/08 10:03:05;;;;;;;29.90;18.83;;;2.90;87.50;;;;;;4936954;28;20210;-81
2021/01/08 10:05:35;;;;;;;31.20;19.20;;;2.80;87.50;;;;;;4939339;28;20209;-82
2021/01/08 10:08:05;;;;;;;28.30;18.17;;;2.80;87.80;;;;;;4946961;28;20239;-83
2021/01/08 10:10:40;;;;;;;31.20;18.70;;;2.80;87.90;;;;;;4934403;28;20619;-81
2021/01/08 10:13:19;;;;;;;28.43;17.60;;;2.80;88.40;;;;;;4934554;28;20202;-82
2021/01/08 10:15:48;;;;;;;25.93;18.10;;;2.80;87.90;;;;;;4952171;28;20482;-81
2021/01/08 10:18:22;;;;;;;28.33;17.90;;;2.90;87.50;;;;;;4931887;28;20742;-80
2021/01/08 10:20:52;;;;;;;29.40;17.93;;;2.90;87.00;;;;;;4950832;28;20224;-81
2021/01/08 10:23:21;;;;;;;28.80;18.10;;;2.90;87.10;;;;;;4952962;28;20332;-83
2021/01/08 10:25:49;;;;;;;25.27;17.20;;;2.90;86.90;;;;;;4952562;28;20226;-79
2021/01/08 10:28:19;;;;;;;28.30;17.27;;;2.90;87.00;;;;;;4942650;28;20604;-81
2021/01/08 10:30:49;;;;;;;28.17;18.30;;;2.90;87.10;;;;;;4935793;28;20640;-79
2021/01/08 10:33:23;;;;;;;25.10;17.10;;;2.90;87.20;;;;;;4947475;28;20225;-79
2021/01/08 10:35:53;;;;;;;30.23;17.90;;;2.80;86.80;;;;;;4939785;28;20246;-81
2021/01/08 10:38:21;;;;;;;28.73;17.70;;;2.80;86.90;;;;;;4951698;28;20210;-81
2021/01/08 10:40:49;;;;;;;28.27;17.73;;;2.80;87.00;;;;;;4942324;28;20205;-79
2021/01/08 10:43:18;;;;;;;27.87;18.53;;;2.80;87.00;;;;;;4954487;28;20494;-81
2021/01/08 10:45:46;;;;;;;27.70;18.57;;;2.90;87.00;;;;;;4947834;28;20741;-81
2021/01/08 10:48:15;;;;;;;28.17;17.80;;;2.90;87.10;;;;;;4946576;28;20406;-81
2021/01/08 10:50:47;;;;;;;26.57;17.67;;;3.00;87.20;;;;;;4955805;28;20464;-81
2021/01/08 10:53:15;;;;;;;26.90;17.13;;;3.10;86.80;;;;;;4960011;28;20291;-80
2021/01/08 10:55:45;;;;;;;26.53;17.40;;;3.10;86.30;;;;;;4962385;28;20206;-80
2021/01/08 10:58:15;;;;;;;25.73;17.47;;;3.10;86.10;;;;;;4937274;28;20463;-80
2021/01/08 11:00:43;;;;;;;28.60;18.03;;;3.20;86.20;;;;;;4940540;28;20211;-80
2021/01/08 11:03:10;;;;;;;27.63;17.37;;;3.30;86.40;;;;;;4941632;28;20662;-80
2021/01/08 11:05:38;;;;;;;26.97;17.70;;;3.20;86.70;;;;;;4939566;28;20208;-79
2021/01/08 11:08:07;;;;;;;22.70;16.03;;;3.30;86.60;;;;;;4948048;28;20363;-80
2021/01/08 11:10:36;;;;;;;25.83;16.10;;;3.30;86.10;;;;;;4927783;28;20205;-82
2021/01/08 11:13:04;;;;;;;28.03;16.87;;;3.30;85.70;;;;;;4942537;28;20208;-80
2021/01/08 11:15:32;;;;;;;26.50;17.63;;;3.30;86.30;;;;;;4945666;28;20218;-81
2021/01/08 11:17:59;;;;;;;28.30;17.53;;;3.30;86.50;;;;;;4943842;28;20222;-79
2021/01/08 11:20:27;;;;;;;27.07;16.37;;;3.30;86.20;;;;;;4944307;28;20211;-79
2021/01/08 11:22:58;;;;;;;25.40;17.20;;;3.30;86.10;;;;;;4939899;28;20930;-82
2021/01/08 11:25:27;;;;;;;25.93;17.33;;;3.20;85.80;;;;;;4935981;28;20219;-79
2021/01/08 11:27:54;;;;;;;28.87;18.23;;;3.20;85.80;;;;;;4922201;28;20476;-80
2021/01/08 11:30:22;;;;;;;27.07;17.67;;;3.20;85.80;;;;;;4941096;28;20219;-79
2021/01/08 11:32:50;;;;;;;25.77;17.60;;;3.10;85.80;;;;;;4937872;28;20431;-79
2021/01/08 11:35:18;;;;;;;26.87;17.47;;;3.10;85.80;;;;;;4944824;28;20205;-82
2021/01/08 11:37:45;;;;;;;28.93;19.03;;;3.10;86.10;;;;;;4942833;28;20205;-80
2021/01/08 11:40:14;;;;;;;25.50;16.53;;;3.10;86.30;;;;;;4937335;28;20221;-78
2021/01/08 11:42:43;;;;;;;24.33;15.53;;;3.10;86.10;;;;;;4939963;28;20191;-80
2021/01/08 11:45:11;;;;;;;28.83;17.77;;;3.10;86.00;;;;;;4953819;28;20402;-80
2021/01/08 11:47:39;;;;;;;27.87;17.80;;;3.10;85.80;;;;;;4957727;28;20217;-81
2021/01/08 11:50:08;;;;;;;27.50;17.63;;;3.10;86.00;;;;;;4963983;28;20209;-82
2021/01/08 11:52:36;;;;;;;26.13;17.83;;;3.10;86.30;;;;;;4949226;28;20213;-79
2021/01/08 11:55:05;;;;;;;26.80;18.27;;;3.00;86.10;;;;;;4963606;28;20484;-80
2021/01/08 11:57:32;;;;;;;31.83;19.13;;;3.10;85.90;;;;;;4967791;28;20245;-80
2021/01/08 12:00:01;;;;;;;29.20;17.67;;;3.10;85.90;;;;;;4967387;28;20529;-81
2021/01/08 12:02:29;;;;;;;26.20;16.90;;;3.10;85.80;;;;;;4942703;28;20205;-78
2021/01/08 12:04:57;;;;;;;27.80;17.33;;;3.00;85.90;;;;;;4940252;28;20213;-79
2021/01/08 12:07:24;;;;;;;25.13;17.70;;;3.00;86.40;;;;;;4941364;28;20272;-81
2021/01/08 12:09:52;;;;;;;27.10;17.20;;;3.00;86.50;;;;;;4939769;28;20199;-80
2021/01/08 12:12:20;;;;;;;26.60;17.03;;;3.00;86.70;;;;;;4939232;28;20255;-80
2021/01/08 12:14:47;;;;;;;28.00;18.30;;;3.00;86.30;;;;;;4941027;28;20749;-79
2021/01/08 12:17:16;;;;;;;26.80;18.03;;;3.00;86.80;;;;;;4940723;28;20304;-79
2021/01/08 12:19:43;;;;;;;29.57;19.03;;;2.90;87.00;;;;;;4967738;28;20234;-79
2021/01/08 12:22:11;;;;;;;29.83;18.83;;;2.90;87.00;;;;;;4965583;28;20536;-81
2021/01/08 12:24:38;;;;;;;29.90;18.70;;;3.00;87.10;;;;;;4944435;28;20216;-80
2021/01/08 12:27:07;;;;;;;28.13;18.67;;;2.90;86.90;;;;;;4937285;28;20238;-79
2021/01/08 12:29:36;;;;;;;28.33;19.00;;;2.90;86.80;;;;;;4947747;28;20850;-80
2021/01/08 12:32:04;;;;;;;27.27;18.57;;;2.90;86.60;;;;;;4947779;28;20294;-81
2021/01/08 12:34:34;;;;;;;29.70;19.23;;;2.90;86.80;;;;;;4942233;28;20681;-80
2021/01/08 12:37:04;;;;;;;27.77;18.53;;;2.90;86.80;;;;;;4945490;28;20202;-78
2021/01/08 12:39:34;;;;;;;30.40;18.77;;;3.00;87.10;;;;;;4945464;28;20285;-78
2021/01/08 12:42:03;;;;;;;28.67;18.00;;;3.00;86.80;;;;;;4942390;28;20779;-77
2021/01/08 12:44:31;;;;;;;26.47;17.03;;;3.00;86.10;;;;;;4949604;28;20207;-79
2021/01/08 12:47:02;;;;;;;26.63;17.53;;;3.00;85.90;;;;;;4949315;28;21123;-79